createdAt,value
2023-04-16T00:02:03.139Z,10.57
2023-04-16T00:04:30.023Z,13.43
2023-04-16T00:06:57.137Z,16.35
2023-04-16T00:09:24.226Z,13.48
2023-04-16T00:11:52.692Z,12.00
2023-04-16T00:14:20.996Z,9.38
2023-04-16T00:16:47.920Z,15.82
2023-04-16T00:19:14.721Z,13.23
2023-04-16T00:21:41.589Z,13.73
2023-04-16T00:24:08.533Z,13.82
2023-04-16T00:26:35.522Z,11.43
2023-04-16T00:29:02.432Z,11.80
2023-04-16T00:31:30.952Z,11.70
2023-04-16T00:33:58.492Z,14.00
2023-04-16T00:36:27.183Z,9.32
2023-04-16T00:38:54.816Z,17.02
2023-04-16T00:41:23.371Z,9.38
2023-04-16T00:43:50.644Z,10.73
2023-04-16T00:46:19.012Z,9.27
2023-04-16T00:48:46.417Z,10.82
2023-04-16T00:51:13.256Z,14.35
2023-04-16T00:53:40.507Z,7.22
2023-04-16T00:56:07.554Z,17.48
2023-04-16T00:58:35.647Z,13.48
2023-04-16T01:01:02.700Z,7.68
2023-04-16T01:03:46.939Z,14.57
2023-04-16T01:06:14.575Z,12.45
2023-04-16T01:08:41.430Z,15.57
2023-04-16T01:11:08.752Z,13.70
2023-04-16T01:13:39.702Z,11.40
2023-04-16T01:16:11.646Z,15.77
2023-04-16T01:18:39.289Z,13.30
2023-04-16T01:21:06.764Z,15.30
2023-04-16T01:23:33.752Z,19.05
2023-04-16T01:26:01.956Z,15.48
2023-04-16T01:28:28.935Z,15.70
2023-04-16T01:30:55.761Z,17.13
2023-04-16T01:33:22.828Z,15.98
2023-04-16T01:35:49.764Z,20.90
2023-04-16T01:38:17.473Z,13.07
2023-04-16T01:40:44.311Z,12.43
2023-04-16T01:43:13.895Z,22.42
2023-04-16T01:45:41.845Z,13.25
2023-04-16T01:48:09.164Z,16.08
2023-04-16T01:50:36.140Z,17.00
2023-04-16T01:53:05.286Z,17.33
2023-04-16T01:55:33.888Z,20.75
2023-04-16T01:58:00.768Z,21.13
2023-04-16T02:00:27.611Z,17.60
2023-04-16T02:02:54.609Z,20.60
2023-04-16T02:05:21.814Z,21.13
2023-04-16T02:07:50.039Z,19.48
2023-04-16T02:10:17.232Z,20.40
2023-04-16T02:12:44.076Z,20.92
2023-04-16T02:15:11.567Z,18.02
2023-04-16T02:17:38.872Z,17.98
2023-04-16T02:20:08.337Z,23.02
2023-04-16T02:22:35.361Z,22.75
2023-04-16T02:25:02.104Z,28.55
2023-04-16T02:27:30.554Z,22.55
2023-04-16T02:29:57.370Z,26.33
2023-04-16T02:32:24.284Z,31.98
2023-04-16T02:34:51.080Z,21.73
2023-04-16T02:37:17.875Z,22.05
2023-04-16T02:39:45.082Z,23.88
2023-04-16T02:42:11.914Z,29.45
2023-04-16T02:44:38.616Z,26.27
2023-04-16T02:47:05.450Z,27.02
2023-04-16T02:49:32.242Z,20.88
2023-04-16T02:51:59.085Z,20.75
2023-04-16T02:54:25.878Z,22.90
2023-04-16T02:56:52.727Z,28.10
2023-04-16T02:59:20.896Z,31.98
2023-04-16T03:01:47.909Z,29.63
2023-04-16T03:04:14.970Z,30.75
2023-04-16T03:06:42.040Z,22.67
2023-04-16T03:09:09.178Z,25.10
2023-04-16T03:11:38.105Z,26.65
2023-04-16T03:14:04.949Z,28.40
2023-04-16T03:16:31.708Z,26.23
2023-04-16T03:18:58.562Z,28.63
2023-04-16T03:21:25.915Z,27.10
2023-04-16T03:23:53.829Z,35.83
2023-04-16T03:26:21.181Z,29.00
2023-04-16T03:28:49.513Z,30.17
2023-04-16T03:31:16.503Z,32.72
2023-04-16T03:33:43.501Z,27.15
2023-04-16T03:36:10.459Z,32.38
2023-04-16T03:38:37.297Z,40.10
2023-04-16T03:41:04.189Z,26.88
2023-04-16T03:43:31.081Z,32.33
2023-04-16T03:45:57.722Z,33.72
2023-04-16T03:48:26.624Z,32.85
2023-04-16T03:50:54.764Z,25.75
2023-04-16T03:53:21.836Z,30.35
2023-04-16T03:55:52.377Z,29.58
2023-04-16T03:58:19.746Z,26.20
2023-04-16T04:00:47.794Z,24.27
2023-04-16T04:03:17.468Z,32.75
2023-04-16T04:05:44.390Z,33.05
2023-04-16T04:08:11.890Z,30.58
2023-04-16T04:10:38.736Z,28.73
2023-04-16T04:13:07.081Z,33.72
2023-04-16T04:15:34.027Z,29.92
2023-04-16T04:18:01.135Z,33.15
2023-04-16T04:20:28.126Z,38.10
2023-04-16T04:22:54.952Z,32.58
2023-04-16T04:25:23.142Z,27.70
2023-04-16T04:27:50.040Z,31.52
2023-04-16T04:30:16.835Z,28.77
2023-04-16T04:32:44.843Z,38.08
2023-04-16T04:35:11.786Z,34.30
2023-04-16T04:37:38.638Z,30.95
2023-04-16T04:40:06.025Z,32.92
2023-04-16T04:42:32.826Z,34.05
2023-04-16T04:44:59.659Z,32.30
2023-04-16T04:47:26.620Z,34.33
2023-04-16T04:49:53.508Z,31.30
2023-04-16T04:52:20.874Z,44.42
2023-04-16T04:54:47.768Z,39.85
2023-04-16T04:57:14.592Z,31.98
2023-04-16T04:59:41.286Z,35.25
2023-04-16T05:02:08.241Z,31.30
2023-04-16T05:04:35.109Z,34.53
2023-04-16T05:07:02.644Z,33.50
2023-04-16T05:09:29.534Z,31.05
2023-04-16T05:11:57.669Z,41.75
2023-04-16T05:14:24.674Z,48.00
2023-04-16T05:16:54.064Z,39.90
2023-04-16T05:19:21.537Z,36.78
2023-04-16T05:21:48.412Z,27.27
2023-04-16T05:24:15.227Z,37.88
2023-04-16T05:26:42.102Z,43.92
2023-04-16T05:29:08.972Z,36.42
2023-04-16T05:31:36.103Z,34.10
2023-04-16T05:34:03.001Z,25.40
2023-04-16T05:36:29.732Z,44.08
2023-04-16T05:38:56.504Z,32.20
2023-04-16T05:41:25.448Z,32.40
2023-04-16T05:43:53.642Z,37.97
2023-04-16T05:46:21.126Z,32.15
2023-04-16T05:48:48.041Z,34.97
2023-04-16T05:51:14.839Z,33.65
2023-04-16T05:53:41.815Z,42.60
2023-04-16T05:56:09.023Z,31.00
2023-04-16T05:58:37.050Z,42.70
2023-04-16T06:01:03.823Z,32.45
2023-04-16T06:03:30.814Z,36.22
2023-04-16T06:05:57.780Z,45.95
2023-04-16T06:08:24.654Z,39.75
2023-04-16T06:10:52.172Z,43.30
2023-04-16T06:13:18.976Z,36.85
2023-04-16T06:15:45.890Z,31.02
2023-04-16T06:18:12.838Z,34.53
2023-04-16T06:20:41.128Z,29.75
2023-04-16T06:23:08.072Z,35.63
2023-04-16T06:25:34.980Z,32.22
2023-04-16T06:28:01.955Z,31.67
2023-04-16T06:30:28.781Z,35.53
2023-04-16T06:32:55.664Z,46.58
2023-04-16T06:35:22.745Z,35.30
2023-04-16T06:37:49.910Z,34.42
2023-04-16T06:40:17.113Z,32.53
2023-04-16T06:42:45.529Z,39.25
2023-04-16T06:45:13.018Z,30.58
2023-04-16T06:47:40.099Z,43.67
2023-04-16T06:50:08.768Z,38.75
2023-04-16T06:52:37.294Z,43.55
2023-04-16T06:55:04.455Z,39.42
2023-04-16T06:57:32.486Z,37.13
2023-04-16T06:59:59.544Z,42.22
2023-04-16T07:02:28.214Z,34.67
2023-04-16T07:04:55.013Z,35.35
2023-04-16T07:07:21.810Z,38.10
2023-04-16T07:09:51.494Z,37.80
2023-04-16T07:14:47.895Z,37.60
2023-04-16T07:17:14.692Z,44.88
2023-04-16T07:19:41.733Z,38.67
2023-04-16T07:22:08.636Z,42.03
2023-04-16T07:24:36.204Z,38.10
2023-04-16T07:27:03.032Z,41.70
2023-04-16T07:29:30.201Z,41.42
2023-04-16T07:31:57.973Z,36.30
2023-04-16T07:34:24.903Z,36.80
2023-04-16T07:36:52.095Z,35.35
2023-04-16T07:39:20.223Z,35.95
2023-04-16T07:41:47.008Z,37.03
2023-04-16T07:44:14.066Z,41.78
2023-04-16T07:46:46.902Z,32.65
2023-04-16T07:49:14.986Z,30.40
2023-04-16T07:51:43.343Z,31.70
2023-04-16T07:54:11.118Z,33.88
2023-04-16T07:56:37.950Z,36.13
2023-04-16T07:59:18.384Z,29.30
2023-04-16T08:01:46.324Z,27.75
2023-04-16T08:04:14.407Z,30.60
2023-04-16T08:06:41.344Z,31.65
2023-04-16T08:09:08.467Z,27.80
2023-04-16T08:11:35.390Z,33.08
2023-04-16T08:14:02.139Z,23.60
2023-04-16T08:16:29.016Z,24.38
2023-04-16T08:18:55.919Z,25.20
2023-04-16T08:21:22.732Z,24.02
2023-04-16T08:23:49.432Z,22.88
2023-04-16T08:26:17.531Z,22.58
2023-04-16T08:28:44.323Z,21.05
2023-04-16T08:31:11.343Z,21.80
2023-04-16T08:33:38.255Z,22.35
2023-04-16T08:36:05.526Z,23.35
2023-04-16T08:38:32.408Z,27.15
2023-04-16T08:41:05.684Z,20.13
2023-04-16T08:43:39.211Z,20.23
2023-04-16T08:46:07.688Z,22.55
2023-04-16T08:48:35.899Z,26.42
2023-04-16T08:51:03.310Z,17.33
2023-04-16T08:53:39.423Z,19.65
2023-04-16T08:56:09.704Z,16.77
2023-04-16T08:58:37.910Z,17.25
2023-04-16T09:01:05.435Z,14.90
2023-04-16T09:03:35.672Z,19.10
2023-04-16T09:06:04.697Z,15.48
2023-04-16T09:08:32.498Z,15.25
2023-04-16T09:11:00.151Z,15.02
2023-04-16T09:13:29.018Z,16.17
2023-04-16T09:15:57.328Z,15.80
2023-04-16T09:18:24.886Z,15.13
2023-04-16T09:20:52.332Z,16.48
2023-04-16T09:23:20.532Z,14.30
2023-04-16T09:25:47.369Z,12.82
2023-04-16T09:28:44.034Z,14.80
2023-04-16T09:31:16.156Z,11.43
2023-04-16T09:36:13.978Z,12.38
2023-04-16T09:38:56.937Z,12.25
2023-04-16T09:41:29.486Z,12.07
2023-04-16T09:43:57.951Z,12.27
2023-04-16T09:46:46.454Z,16.17
2023-04-16T09:49:17.481Z,13.57
2023-04-16T09:51:49.863Z,14.30
2023-04-16T09:54:16.878Z,12.30
2023-04-16T09:56:47.274Z,13.23
2023-04-16T09:59:21.808Z,14.15
2023-04-16T10:01:50.147Z,14.55
2023-04-16T10:04:18.877Z,12.30
2023-04-16T10:07:02.606Z,14.63
2023-04-16T10:09:38.713Z,9.90
2023-04-16T10:12:07.365Z,17.92
2023-04-16T10:14:34.459Z,16.13
2023-04-16T10:17:01.629Z,14.15
2023-04-16T10:19:28.496Z,14.73
2023-04-16T10:21:56.358Z,16.00
2023-04-16T10:24:23.666Z,17.92
2023-04-16T10:26:52.917Z,17.55
2023-04-16T10:29:23.648Z,17.35
2023-04-16T10:31:51.793Z,20.42
2023-04-16T10:34:19.843Z,19.38
2023-04-16T10:36:52.913Z,23.00
2023-04-16T10:39:22.924Z,18.67
2023-04-16T10:41:50.708Z,17.42
2023-04-16T10:44:19.391Z,15.27
2023-04-16T10:46:49.995Z,18.83
2023-04-16T10:49:22.415Z,16.50
2023-04-16T10:51:57.027Z,21.33
2023-04-16T10:54:25.747Z,20.60
2023-04-16T10:56:53.947Z,22.95
2023-04-16T10:59:22.429Z,22.23
2023-04-16T11:01:56.106Z,23.48
2023-04-16T11:04:27.021Z,21.15
2023-04-16T11:07:15.297Z,25.75
2023-04-16T11:10:06.230Z,21.52
2023-04-16T11:12:46.330Z,24.67
2023-04-16T11:15:16.437Z,30.80
2023-04-16T11:17:48.033Z,29.63
2023-04-16T11:20:21.929Z,31.90
2023-04-16T11:22:53.167Z,31.42
2023-04-16T11:25:22.509Z,31.60
2023-04-16T11:27:50.470Z,28.77
2023-04-16T11:30:20.329Z,23.17
2023-04-16T11:32:47.212Z,27.90
2023-04-16T11:35:18.773Z,27.13
2023-04-16T11:37:46.900Z,27.95
2023-04-16T11:40:14.017Z,22.90
2023-04-16T11:42:44.442Z,25.10
2023-04-16T11:45:14.579Z,24.20
2023-04-16T11:47:51.877Z,25.65
2023-04-16T11:50:27.426Z,27.63
2023-04-16T11:53:03.545Z,28.08
2023-04-16T11:55:31.196Z,32.13
2023-04-16T11:57:58.191Z,30.40
2023-04-16T12:00:25.152Z,27.13
2023-04-16T12:02:55.629Z,28.63
2023-04-16T12:05:35.823Z,31.23
2023-04-16T12:08:11.986Z,28.42
2023-04-16T12:10:56.555Z,32.65
2023-04-16T12:13:23.375Z,25.52
2023-04-16T12:15:54.886Z,27.70
2023-04-16T12:18:23.993Z,24.63
2023-04-16T12:20:51.485Z,22.27
2023-04-16T12:23:30.084Z,21.08
2023-04-16T12:26:02.544Z,25.75
2023-04-16T12:28:38.871Z,22.38
2023-04-16T12:31:06.328Z,23.13
2023-04-16T12:33:33.464Z,18.90
2023-04-16T12:36:01.709Z,22.02
2023-04-16T12:38:29.262Z,19.80
2023-04-16T12:40:58.283Z,17.75
2023-04-16T12:43:25.761Z,22.58
2023-04-16T12:45:52.734Z,19.42
2023-04-16T12:48:24.191Z,17.73
2023-04-16T12:50:53.933Z,18.33
2023-04-16T12:53:20.826Z,21.80
2023-04-16T12:55:48.241Z,29.95
2023-04-16T12:58:15.407Z,36.35
2023-04-16T13:00:42.469Z,19.73
2023-04-16T13:03:09.478Z,22.50
2023-04-16T13:05:36.570Z,20.67
2023-04-16T13:08:03.339Z,28.25
2023-04-16T13:10:30.592Z,25.33
2023-04-16T13:12:57.403Z,29.08
2023-04-16T13:15:24.326Z,28.30
2023-04-16T13:17:51.238Z,28.60
2023-04-16T13:20:18.173Z,29.92
2023-04-16T13:22:45.099Z,31.25
2023-04-16T13:25:12.124Z,36.92
2023-04-16T13:27:38.950Z,33.70
2023-04-16T13:30:06.592Z,32.95
2023-04-16T13:32:33.778Z,36.35
2023-04-16T13:35:00.812Z,34.72
2023-04-16T13:37:28.096Z,28.60
2023-04-16T13:39:55.058Z,34.58
2023-04-16T13:42:22.244Z,43.28
2023-04-16T13:44:53.119Z,33.97
2023-04-16T13:47:20.167Z,30.60
2023-04-16T13:49:47.650Z,35.05
2023-04-16T13:52:14.797Z,37.72
2023-04-16T13:54:41.615Z,32.80
2023-04-16T13:57:08.602Z,34.55
2023-04-16T13:59:35.379Z,33.70
2023-04-16T14:02:02.592Z,29.35
2023-04-16T14:04:29.887Z,29.73
2023-04-16T14:06:57.036Z,37.55
2023-04-16T14:09:24.552Z,47.20
2023-04-16T14:11:51.492Z,35.03
2023-04-16T14:14:18.344Z,33.28
2023-04-16T14:16:45.332Z,33.72
2023-04-16T14:19:12.379Z,26.58
2023-04-16T14:21:39.680Z,28.17
2023-04-16T14:24:07.037Z,22.92
2023-04-16T14:26:33.792Z,20.25
2023-04-16T14:29:01.130Z,24.90
2023-04-16T14:31:27.919Z,27.85
2023-04-16T14:33:54.824Z,29.10
2023-04-16T14:36:21.564Z,20.80
2023-04-16T14:38:49.579Z,19.70
2023-04-16T14:41:16.517Z,26.00
2023-04-16T14:43:44.940Z,20.63
2023-04-16T14:46:13.388Z,23.23
2023-04-16T14:48:40.479Z,24.33
2023-04-16T14:51:07.357Z,22.50
2023-04-16T14:53:36.171Z,22.92
2023-04-16T14:56:03.299Z,25.88
2023-04-16T14:58:30.461Z,23.67
2023-04-16T15:00:58.844Z,22.25
2023-04-16T15:03:25.895Z,22.10
2023-04-16T15:05:55.827Z,28.23
2023-04-16T15:08:23.365Z,20.27
2023-04-16T15:10:51.282Z,23.35
2023-04-16T15:13:18.381Z,27.63
2023-04-16T15:15:45.577Z,21.05
2023-04-16T15:18:12.481Z,22.77
2023-04-16T15:20:39.323Z,22.17
2023-04-16T15:23:06.130Z,17.90
2023-04-16T15:25:33.159Z,23.77
2023-04-16T15:28:00.102Z,21.77
2023-04-16T15:30:27.112Z,22.85
2023-04-16T15:32:55.422Z,22.83
2023-04-16T15:35:22.491Z,21.48
2023-04-16T15:37:49.501Z,25.88
2023-04-16T15:40:19.060Z,24.10
2023-04-16T15:42:45.964Z,22.33
2023-04-16T15:45:12.818Z,22.77
2023-04-16T15:47:41.629Z,24.02
2023-04-16T15:50:09.012Z,24.88
2023-04-16T15:52:36.626Z,22.65
2023-04-16T15:55:04.375Z,22.63
2023-04-16T15:57:31.464Z,24.50
2023-04-16T16:02:32.841Z,23.90
2023-04-16T16:05:01.477Z,24.40
2023-04-16T16:07:28.329Z,25.13
2023-04-16T16:09:56.367Z,30.42
2023-04-16T16:12:23.486Z,24.27
2023-04-16T16:14:50.923Z,24.20
2023-04-16T16:17:19.209Z,24.45
2023-04-16T16:19:46.673Z,26.90
2023-04-16T16:22:14.156Z,33.85
2023-04-16T16:24:40.909Z,24.15
2023-04-16T16:27:07.878Z,27.55
2023-04-16T16:29:34.911Z,27.73
2023-04-16T16:32:01.780Z,27.73
2023-04-16T16:34:28.615Z,35.97
2023-04-16T16:36:56.995Z,22.70
2023-04-16T16:39:25.425Z,26.98
2023-04-16T16:41:53.651Z,26.42
2023-04-16T16:44:21.376Z,30.65
2023-04-16T16:46:48.683Z,30.38
2023-04-16T16:49:16.593Z,29.63
2023-04-16T16:51:47.574Z,31.02
2023-04-16T16:54:14.882Z,31.98
2023-04-16T16:56:41.873Z,26.90
2023-04-16T16:59:09.158Z,26.08
2023-04-16T17:01:37.859Z,33.22
2023-04-16T17:04:06.048Z,33.97
2023-04-16T17:06:33.639Z,31.25
2023-04-16T17:09:00.936Z,28.55
2023-04-16T17:11:29.690Z,31.42
2023-04-16T17:13:56.459Z,34.80
2023-04-16T17:16:26.647Z,32.40
2023-04-16T17:18:53.549Z,35.42
2023-04-16T17:21:20.296Z,38.42
2023-04-16T17:23:47.492Z,32.22
2023-04-16T17:26:14.605Z,29.58
2023-04-16T17:28:41.654Z,32.25
2023-04-16T17:31:08.803Z,29.75
2023-04-16T17:33:35.885Z,32.88
2023-04-16T17:36:02.745Z,29.55
2023-04-16T17:38:29.532Z,31.77
2023-04-16T17:40:57.113Z,32.00
2023-04-16T17:43:24.495Z,31.73
2023-04-16T17:45:51.382Z,29.55
2023-04-16T17:48:18.618Z,27.42
2023-04-16T17:50:45.418Z,31.65
2023-04-16T17:53:12.268Z,26.42
2023-04-16T17:55:39.304Z,35.78
2023-04-16T17:58:06.566Z,28.20
2023-04-16T18:00:33.423Z,28.42
2023-04-16T18:03:03.120Z,30.30
2023-04-16T18:05:31.284Z,28.25
2023-04-16T18:07:58.339Z,32.50
2023-04-16T18:10:28.054Z,31.45
2023-04-16T18:12:54.899Z,29.92
2023-04-16T18:15:21.565Z,28.92
2023-04-16T18:17:48.515Z,29.48
2023-04-16T18:20:19.556Z,27.33
2023-04-16T18:22:46.526Z,31.90
2023-04-16T18:25:13.373Z,29.10
2023-04-16T18:27:40.460Z,30.02
2023-04-16T18:30:07.764Z,30.90
2023-04-16T18:32:35.657Z,28.00
2023-04-16T18:35:04.720Z,31.30
2023-04-16T18:37:31.919Z,43.38
2023-04-16T18:39:58.792Z,29.52
2023-04-16T18:42:28.267Z,35.60
2023-04-16T18:44:55.554Z,37.00
2023-04-16T18:47:22.568Z,32.25
2023-04-16T18:49:49.724Z,37.58
2023-04-16T18:52:16.715Z,33.70
2023-04-16T18:54:43.764Z,36.38
2023-04-16T18:57:10.652Z,33.85
2023-04-16T18:59:37.504Z,31.98
2023-04-16T19:02:04.375Z,35.67
2023-04-16T19:04:31.948Z,35.15
2023-04-16T19:06:59.055Z,34.95
2023-04-16T19:09:27.093Z,36.03
2023-04-16T19:11:53.887Z,39.45
2023-04-16T19:14:22.177Z,33.08
2023-04-16T19:16:49.295Z,37.08
2023-04-16T19:19:17.557Z,42.90
2023-04-16T19:21:44.511Z,40.60
2023-04-16T19:24:11.654Z,32.20
2023-04-16T19:26:38.543Z,37.88
2023-04-16T19:29:05.490Z,34.53
2023-04-16T19:31:32.278Z,35.88
2023-04-16T19:33:59.241Z,34.38
2023-04-16T19:36:26.722Z,35.45
2023-04-16T19:38:53.505Z,38.33
2023-04-16T19:41:20.388Z,37.42
2023-04-16T19:43:47.274Z,36.17
2023-04-16T19:46:15.773Z,35.08
2023-04-16T19:48:42.724Z,36.60
2023-04-16T19:51:09.554Z,40.30
2023-04-16T19:53:36.465Z,38.90
2023-04-16T19:56:03.644Z,36.40
2023-04-16T19:58:31.204Z,40.15
2023-04-16T20:00:58.179Z,39.97
2023-04-16T20:03:25.123Z,40.38
2023-04-16T20:05:52.095Z,38.78
2023-04-16T20:08:18.777Z,33.58
2023-04-16T20:10:45.878Z,37.28
2023-04-16T20:13:13.589Z,35.72
2023-04-16T20:15:40.386Z,36.25
2023-04-16T20:18:08.848Z,43.40
2023-04-16T20:20:37.770Z,48.17
2023-04-16T20:23:04.908Z,41.58
2023-04-16T20:25:31.691Z,39.45
2023-04-16T20:27:58.541Z,37.63
2023-04-16T20:30:29.430Z,35.72
2023-04-16T20:32:56.542Z,40.20
2023-04-16T20:35:23.442Z,41.67
2023-04-16T20:37:50.264Z,45.92
2023-04-16T20:40:17.106Z,42.33
2023-04-16T20:42:46.416Z,43.15
2023-04-16T20:45:13.413Z,47.22
2023-04-16T20:47:40.377Z,43.72
2023-04-16T20:50:08.141Z,40.17
2023-04-16T20:52:34.858Z,49.90
2023-04-16T20:55:01.666Z,44.70
2023-04-16T20:57:29.582Z,49.53
2023-04-16T20:59:56.512Z,44.17
2023-04-16T21:02:24.311Z,47.95
2023-04-16T21:04:51.410Z,47.85
2023-04-16T21:07:19.398Z,42.72
2023-04-16T21:09:46.353Z,54.15
2023-04-16T21:12:13.179Z,39.85
2023-04-16T21:14:39.868Z,52.95
2023-04-16T21:17:06.977Z,42.20
2023-04-16T21:19:33.770Z,43.95
2023-04-16T21:22:02.862Z,41.42
2023-04-16T21:24:31.288Z,44.13
2023-04-16T21:26:58.330Z,44.17
2023-04-16T21:29:25.522Z,49.35
2023-04-16T21:31:52.553Z,43.70
2023-04-16T21:34:20.588Z,46.78
2023-04-16T21:36:48.672Z,41.63
2023-04-16T21:39:17.557Z,44.00
2023-04-16T21:41:44.387Z,44.38
2023-04-16T21:44:13.677Z,43.15
2023-04-16T21:46:40.528Z,37.67
2023-04-16T21:49:07.289Z,39.65
2023-04-16T21:51:34.036Z,41.08
2023-04-16T21:54:00.934Z,40.88
2023-04-16T21:56:28.076Z,36.45
2023-04-16T21:58:55.074Z,40.83
2023-04-16T22:01:22.037Z,38.67
2023-04-16T22:03:51.841Z,37.55
2023-04-16T22:06:19.124Z,37.60
2023-04-16T22:08:46.439Z,39.45
2023-04-16T22:11:14.353Z,36.42
2023-04-16T22:13:42.671Z,40.40
2023-04-16T22:16:11.535Z,38.38
2023-04-16T22:18:38.924Z,42.25
2023-04-16T22:21:05.862Z,45.30
2023-04-16T22:23:32.767Z,37.45
2023-04-16T22:25:59.616Z,43.22
2023-04-16T22:28:26.656Z,38.70
2023-04-16T22:30:53.396Z,39.90
2023-04-16T22:33:20.545Z,39.00
2023-04-16T22:35:47.340Z,44.78
2023-04-16T22:38:14.180Z,38.60
2023-04-16T22:40:41.329Z,45.30
2023-04-16T22:43:08.107Z,41.42
2023-04-16T22:45:35.709Z,40.13
2023-04-16T22:48:03.900Z,41.13
2023-04-16T22:50:31.544Z,46.40
2023-04-16T22:52:58.440Z,42.10
2023-04-16T22:55:25.737Z,47.20
2023-04-16T22:57:52.724Z,50.08
2023-04-16T23:00:19.601Z,41.28
2023-04-16T23:02:46.746Z,49.40
2023-04-16T23:05:13.667Z,43.38
2023-04-16T23:07:40.547Z,45.25
2023-04-16T23:10:08.891Z,47.10
2023-04-16T23:12:39.367Z,41.72
2023-04-16T23:15:07.016Z,41.97
2023-04-16T23:17:35.178Z,47.97
2023-04-16T23:20:03.071Z,41.45
2023-04-16T23:22:29.937Z,48.53
2023-04-16T23:24:57.003Z,45.58
2023-04-16T23:27:23.993Z,45.97
2023-04-16T23:29:51.959Z,47.25
2023-04-16T23:32:18.893Z,51.58
2023-04-16T23:34:46.169Z,44.85
2023-04-16T23:37:13.203Z,46.72
2023-04-16T23:39:40.150Z,44.67
2023-04-16T23:42:07.590Z,46.83
2023-04-16T23:44:34.449Z,43.58
2023-04-16T23:47:01.423Z,41.90
2023-04-16T23:49:28.138Z,47.55
2023-04-16T23:51:55.027Z,43.60
2023-04-16T23:54:21.904Z,50.28
2023-04-16T23:56:48.849Z,46.45
2023-04-16T23:59:16.839Z,49.28
